sensor_id;sensor_type;location;lat;lon;timestamp;pressure;altitude;pressure_sealevel;temperature;humidity
58473;BME280;44775;51.564;5.460;2023-03-13T00:00:56;100007.75;;;8.73;100.00
58473;BME280;44775;51.564;5.460;2023-03-13T00:03:21;100005.09;;;8.73;100.00
58473;BME280;44775;51.564;5.460;2023-03-13T00:05:47;99997.28;;;8.72;100.00
58473;BME280;44775;51.564;5.460;2023-03-13T00:08:12;99991.31;;;8.70;100.00
58473;BME280;44775;51.564;5.460;2023-03-13T00:10:39;99977.81;;;8.71;100.00
58473;BME280;44775;51.564;5.460;2023-03-13T00:13:05;99974.03;;;8.66;100.00
58473;BME280;44775;51.564;5.460;2023-03-13T00:15:31;99971.56;;;8.64;100.00
58473;BME280;44775;51.564;5.460;2023-03-13T00:17:56;99965.91;;;8.59;100.00
58473;BME280;44775;51.564;5.460;2023-03-13T00:20:22;99959.94;;;8.57;100.00
58473;BME280;44775;51.564;5.460;2023-03-13T00:22:47;99961.88;;;8.63;100.00
58473;BME280;44775;51.564;5.460;2023-03-13T00:25:12;99947.94;;;8.61;100.00
58473;BME280;44775;51.564;5.460;2023-03-13T00:27:37;99943.00;;;8.50;100.00
58473;BME280;44775;51.564;5.460;2023-03-13T00:30:03;99931.41;;;8.43;100.00
58473;BME280;44775;51.564;5.460;2023-03-13T00:32:28;99934.03;;;8.51;100.00
58473;BME280;44775;51.564;5.460;2023-03-13T00:34:54;99931.06;;;8.46;100.00
58473;BME280;44775;51.564;5.460;2023-03-13T00:37:19;99924.09;;;8.45;100.00
58473;BME280;44775;51.564;5.460;2023-03-13T00:39:45;99911.47;;;8.39;100.00
58473;BME280;44775;51.564;5.460;2023-03-13T00:42:10;99908.13;;;8.37;100.00
58473;BME280;44775;51.564;5.460;2023-03-13T00:44:35;99904.50;;;8.38;100.00
58473;BME280;44775;51.564;5.460;2023-03-13T00:47:01;99899.19;;;8.38;100.00
58473;BME280;44775;51.564;5.460;2023-03-13T00:49:26;99887.16;;;8.42;100.00
58473;BME280;44775;51.564;5.460;2023-03-13T00:51:51;99886.34;;;8.41;100.00
58473;BME280;44775;51.564;5.460;2023-03-13T00:54:17;99884.50;;;8.42;100.00
58473;BME280;44775;51.564;5.460;2023-03-13T00:56:42;99883.84;;;8.40;100.00
58473;BME280;44775;51.564;5.460;2023-03-13T00:59:07;99872.69;;;8.36;100.00
58473;BME280;44775;51.564;5.460;2023-03-13T01:01:34;99858.56;;;8.36;100.00
58473;BME280;44775;51.564;5.460;2023-03-13T01:04:06;99857.53;;;8.37;100.00
58473;BME280;44775;51.564;5.460;2023-03-13T01:06:34;99849.56;;;8.37;100.00
58473;BME280;44775;51.564;5.460;2023-03-13T01:09:00;99842.41;;;8.37;100.00
58473;BME280;44775;51.564;5.460;2023-03-13T01:11:28;99844.91;;;8.39;100.00
58473;BME280;44775;51.564;5.460;2023-03-13T01:13:56;99837.75;;;8.39;100.00
58473;BME280;44775;51.564;5.460;2023-03-13T01:16:22;99830.44;;;8.41;100.00
58473;BME280;44775;51.564;5.460;2023-03-13T01:18:50;99831.53;;;8.47;100.00
58473;BME280;44775;51.564;5.460;2023-03-13T01:21:17;99823.13;;;8.58;100.00
58473;BME280;44775;51.564;5.460;2023-03-13T01:23:44;99813.19;;;8.52;100.00
58473;BME280;44775;51.564;5.460;2023-03-13T01:26:10;99802.81;;;8.57;100.00
58473;BME280;44775;51.564;5.460;2023-03-13T01:28:36;99796.84;;;8.55;100.00
58473;BME280;44775;51.564;5.460;2023-03-13T01:31:13;99780.16;;;8.61;100.00
58473;BME280;44775;51.564;5.460;2023-03-13T01:33:39;99780.72;;;8.71;100.00
58473;BME280;44775;51.564;5.460;2023-03-13T01:36:04;99786.88;;;8.72;100.00
58473;BME280;44775;51.564;5.460;2023-03-13T01:38:30;99764.38;;;8.74;100.00
58473;BME280;44775;51.564;5.460;2023-03-13T01:40:55;99780.00;;;8.78;100.00
58473;BME280;44775;51.564;5.460;2023-03-13T01:43:23;99779.22;;;8.84;100.00
58473;BME280;44775;51.564;5.460;2023-03-13T01:48:42;99750.75;;;8.99;100.00
58473;BME280;44775;51.564;5.460;2023-03-13T01:51:12;99753.69;;;9.04;100.00
58473;BME280;44775;51.564;5.460;2023-03-13T01:53:41;99741.84;;;9.07;100.00
58473;BME280;44775;51.564;5.460;2023-03-13T01:56:12;99738.44;;;9.13;100.00
58473;BME280;44775;51.564;5.460;2023-03-13T01:58:39;99738.63;;;9.11;100.00
58473;BME280;44775;51.564;5.460;2023-03-13T02:01:05;99726.28;;;9.25;100.00
58473;BME280;44775;51.564;5.460;2023-03-13T02:03:33;99713.78;;;9.26;100.00
58473;BME280;44775;51.564;5.460;2023-03-13T02:06:00;99707.44;;;9.27;100.00
58473;BME280;44775;51.564;5.460;2023-03-13T02:08:54;99705.78;;;9.47;100.00
58473;BME280;44775;51.564;5.460;2023-03-13T02:11:26;99692.47;;;9.47;100.00
58473;BME280;44775;51.564;5.460;2023-03-13T02:13:54;99688.41;;;9.51;100.00
58473;BME280;44775;51.564;5.460;2023-03-13T02:16:20;99683.06;;;9.51;100.00
58473;BME280;44775;51.564;5.460;2023-03-13T02:18:47;99681.94;;;9.60;100.00
58473;BME280;44775;51.564;5.460;2023-03-13T02:21:40;99677.03;;;9.64;100.00
58473;BME280;44775;51.564;5.460;2023-03-13T02:24:24;99655.53;;;9.65;100.00
58473;BME280;44775;51.564;5.460;2023-03-13T02:26:53;99643.81;;;9.66;100.00
58473;BME280;44775;51.564;5.460;2023-03-13T02:29:19;99637.47;;;9.67;100.00
58473;BME280;44775;51.564;5.460;2023-03-13T02:31:46;99633.00;;;9.75;100.00
58473;BME280;44775;51.564;5.460;2023-03-13T02:34:14;99638.78;;;9.78;100.00
58473;BME280;44775;51.564;5.460;2023-03-13T02:36:40;99642.69;;;9.76;100.00
58473;BME280;44775;51.564;5.460;2023-03-13T02:39:06;99616.63;;;9.78;100.00
58473;BME280;44775;51.564;5.460;2023-03-13T02:41:33;99636.97;;;9.79;100.00
58473;BME280;44775;51.564;5.460;2023-03-13T02:43:59;99640.50;;;9.86;100.00
58473;BME280;44775;51.564;5.460;2023-03-13T02:46:24;99638.28;;;9.89;100.00
58473;BME280;44775;51.564;5.460;2023-03-13T02:48:52;99616.34;;;9.94;100.00
58473;BME280;44775;51.564;5.460;2023-03-13T02:53:57;99631.53;;;9.93;100.00
58473;BME280;44775;51.564;5.460;2023-03-13T02:56:26;99633.38;;;9.93;100.00
58473;BME280;44775;51.564;5.460;2023-03-13T02:58:52;99623.56;;;10.00;100.00
58473;BME280;44775;51.564;5.460;2023-03-13T03:01:17;99639.03;;;10.11;100.00
58473;BME280;44775;51.564;5.460;2023-03-13T03:03:42;99640.50;;;10.14;100.00
58473;BME280;44775;51.564;5.460;2023-03-13T03:06:08;99642.13;;;10.15;100.00
58473;BME280;44775;51.564;5.460;2023-03-13T03:08:34;99636.22;;;10.20;100.00
58473;BME280;44775;51.564;5.460;2023-03-13T03:10:59;99634.81;;;10.24;100.00
58473;BME280;44775;51.564;5.460;2023-03-13T03:13:25;99630.97;;;10.26;100.00
58473;BME280;44775;51.564;5.460;2023-03-13T03:15:50;99643.28;;;10.27;100.00
58473;BME280;44775;51.564;5.460;2023-03-13T03:18:16;99634.66;;;10.32;100.00
58473;BME280;44775;51.564;5.460;2023-03-13T03:20:41;99626.06;;;10.30;100.00
58473;BME280;44775;51.564;5.460;2023-03-13T03:23:06;99636.72;;;10.30;100.00
58473;BME280;44775;51.564;5.460;2023-03-13T03:25:32;99634.50;;;10.33;100.00
58473;BME280;44775;51.564;5.460;2023-03-13T03:27:57;99626.94;;;10.44;100.00
58473;BME280;44775;51.564;5.460;2023-03-13T03:30:22;99620.38;;;10.46;100.00
58473;BME280;44775;51.564;5.460;2023-03-13T03:32:47;99620.38;;;10.46;100.00
58473;BME280;44775;51.564;5.460;2023-03-13T03:35:13;99621.03;;;10.55;100.00
58473;BME280;44775;51.564;5.460;2023-03-13T03:37:38;99612.97;;;10.48;100.00
58473;BME280;44775;51.564;5.460;2023-03-13T03:40:04;99626.59;;;10.53;100.00
58473;BME280;44775;51.564;5.460;2023-03-13T03:42:30;99623.72;;;10.55;100.00
58473;BME280;44775;51.564;5.460;2023-03-13T03:44:56;99621.84;;;10.55;100.00
58473;BME280;44775;51.564;5.460;2023-03-13T03:47:21;99619.22;;;10.62;100.00
58473;BME280;44775;51.564;5.460;2023-03-13T03:49:46;99624.53;;;10.55;100.00
58473;BME280;44775;51.564;5.460;2023-03-13T03:52:12;99613.44;;;10.58;100.00
58473;BME280;44775;51.564;5.460;2023-03-13T03:54:37;99624.16;;;10.65;100.00
58473;BME280;44775;51.564;5.460;2023-03-13T03:57:02;99625.78;;;10.59;100.00
58473;BME280;44775;51.564;5.460;2023-03-13T03:59:28;99621.88;;;10.62;100.00
58473;BME280;44775;51.564;5.460;2023-03-13T04:01:53;99617.75;;;10.59;100.00
58473;BME280;44775;51.564;5.460;2023-03-13T04:04:18;99613.06;;;10.61;100.00
58473;BME280;44775;51.564;5.460;2023-03-13T04:06:44;99613.91;;;10.69;100.00
58473;BME280;44775;51.564;5.460;2023-03-13T04:09:09;99616.00;;;10.73;100.00
58473;BME280;44775;51.564;5.460;2023-03-13T04:11:34;99618.66;;;10.80;100.00
58473;BME280;44775;51.564;5.460;2023-03-13T04:13:59;99594.59;;;10.80;100.00
58473;BME280;44775;51.564;5.460;2023-03-13T04:16:25;99612.72;;;10.84;100.00
58473;BME280;44775;51.564;5.460;2023-03-13T04:18:50;99606.16;;;10.80;100.00
58473;BME280;44775;51.564;5.460;2023-03-13T04:21:15;99604.72;;;10.84;100.00
58473;BME280;44775;51.564;5.460;2023-03-13T04:23:41;99590.97;;;10.94;100.00
58473;BME280;44775;51.564;5.460;2023-03-13T04:26:06;99581.09;;;10.95;100.00
58473;BME280;44775;51.564;5.460;2023-03-13T04:28:31;99583.16;;;10.99;100.00
58473;BME280;44775;51.564;5.460;2023-03-13T04:30:57;99587.69;;;11.05;100.00
58473;BME280;44775;51.564;5.460;2023-03-13T04:33:25;99576.59;;;11.02;100.00
58473;BME280;44775;51.564;5.460;2023-03-13T04:35:50;99568.59;;;11.08;100.00
58473;BME280;44775;51.564;5.460;2023-03-13T04:38:15;99559.75;;;11.15;100.00
58473;BME280;44775;51.564;5.460;2023-03-13T04:40:40;99549.88;;;11.22;100.00
58473;BME280;44775;51.564;5.460;2023-03-13T04:43:07;99551.94;;;11.26;100.00
58473;BME280;44775;51.564;5.460;2023-03-13T04:45:33;99556.88;;;11.29;100.00
58473;BME280;44775;51.564;5.460;2023-03-13T04:47:58;99549.06;;;11.34;100.00
58473;BME280;44775;51.564;5.460;2023-03-13T04:50:23;99542.06;;;11.40;100.00
58473;BME280;44775;51.564;5.460;2023-03-13T04:52:49;99526.63;;;11.49;100.00
58473;BME280;44775;51.564;5.460;2023-03-13T04:55:14;99525.81;;;11.48;100.00
58473;BME280;44775;51.564;5.460;2023-03-13T04:57:39;99541.06;;;11.48;100.00
58473;BME280;44775;51.564;5.460;2023-03-13T05:00:05;99536.13;;;11.51;100.00
58473;BME280;44775;51.564;5.460;2023-03-13T05:02:32;99535.06;;;11.59;100.00
58473;BME280;44775;51.564;5.460;2023-03-13T05:04:57;99527.44;;;11.69;100.00
58473;BME280;44775;51.564;5.460;2023-03-13T05:07:23;99534.84;;;11.61;100.00
58473;BME280;44775;51.564;5.460;2023-03-13T05:09:48;99520.88;;;11.65;100.00
58473;BME280;44775;51.564;5.460;2023-03-13T05:12:13;99520.66;;;11.67;100.00
58473;BME280;44775;51.564;5.460;2023-03-13T05:14:39;99517.78;;;11.75;100.00
58473;BME280;44775;51.564;5.460;2023-03-13T05:17:04;99521.66;;;11.79;100.00
58473;BME280;44775;51.564;5.460;2023-03-13T05:19:29;99526.59;;;11.82;100.00
58473;BME280;44775;51.564;5.460;2023-03-13T05:21:55;99519.81;;;11.79;100.00
58473;BME280;44775;51.564;5.460;2023-03-13T05:24:20;99523.72;;;11.83;100.00
58473;BME280;44775;51.564;5.460;2023-03-13T05:26:45;99518.38;;;11.90;100.00
58473;BME280;44775;51.564;5.460;2023-03-13T05:29:10;99505.38;;;12.00;100.00
58473;BME280;44775;51.564;5.460;2023-03-13T05:31:36;99509.88;;;12.07;100.00
58473;BME280;44775;51.564;5.460;2023-03-13T05:34:01;99514.03;;;12.02;100.00
58473;BME280;44775;51.564;5.460;2023-03-13T05:36:26;99518.34;;;12.03;100.00
58473;BME280;44775;51.564;5.460;2023-03-13T05:38:52;99516.28;;;12.05;100.00
58473;BME280;44775;51.564;5.460;2023-03-13T05:41:17;99532.47;;;12.24;100.00
58473;BME280;44775;51.564;5.460;2023-03-13T05:43:42;99513.75;;;12.17;100.00
58473;BME280;44775;51.564;5.460;2023-03-13T05:46:07;99519.94;;;12.18;100.00
58473;BME280;44775;51.564;5.460;2023-03-13T05:48:33;99515.00;;;12.15;100.00
58473;BME280;44775;51.564;5.460;2023-03-13T05:50:58;99520.97;;;12.17;100.00
58473;BME280;44775;51.564;5.460;2023-03-13T05:53:23;99515.59;;;12.23;100.00
58473;BME280;44775;51.564;5.460;2023-03-13T05:55:49;99522.19;;;12.21;100.00
58473;BME280;44775;51.564;5.460;2023-03-13T05:58:14;99510.06;;;12.18;100.00
58473;BME280;44775;51.564;5.460;2023-03-13T06:00:39;99523.84;;;12.22;100.00
58473;BME280;44775;51.564;5.460;2023-03-13T06:03:05;99530.44;;;12.19;100.00
58473;BME280;44775;51.564;5.460;2023-03-13T06:05:30;99527.53;;;12.21;100.00
58473;BME280;44775;51.564;5.460;2023-03-13T06:07:55;99523.84;;;12.22;100.00
58473;BME280;44775;51.564;5.460;2023-03-13T06:10:20;99521.78;;;12.24;100.00
58473;BME280;44775;51.564;5.460;2023-03-13T06:12:53;99513.09;;;12.35;100.00
58473;BME280;44775;51.564;5.460;2023-03-13T06:15:19;99526.69;;;12.34;100.00
58473;BME280;44775;51.564;5.460;2023-03-13T06:17:44;99512.63;;;12.38;100.00
58473;BME280;44775;51.564;5.460;2023-03-13T06:20:10;99512.25;;;12.35;100.00
58473;BME280;44775;51.564;5.460;2023-03-13T06:22:35;99505.09;;;12.22;100.00
58473;BME280;44775;51.564;5.460;2023-03-13T06:25:01;99514.75;;;12.29;100.00
58473;BME280;44775;51.564;5.460;2023-03-13T06:27:26;99515.56;;;12.30;100.00
58473;BME280;44775;51.564;5.460;2023-03-13T06:29:51;99508.56;;;12.29;100.00
58473;BME280;44775;51.564;5.460;2023-03-13T06:32:16;99508.97;;;12.33;100.00
58473;BME280;44775;51.564;5.460;2023-03-13T06:34:42;99512.03;;;12.36;100.00
58473;BME280;44775;51.564;5.460;2023-03-13T06:37:07;99501.53;;;12.35;100.00
58473;BME280;44775;51.564;5.460;2023-03-13T06:39:32;99502.81;;;12.32;100.00
58473;BME280;44775;51.564;5.460;2023-03-13T06:41:58;99512.47;;;12.33;100.00
58473;BME280;44775;51.564;5.460;2023-03-13T06:44:23;99518.38;;;12.42;100.00
58473;BME280;44775;51.564;5.460;2023-03-13T06:46:48;99513.88;;;12.42;100.00
58473;BME280;44775;51.564;5.460;2023-03-13T06:49:14;99507.88;;;12.47;100.00
58473;BME280;44775;51.564;5.460;2023-03-13T06:51:39;99511.38;;;12.47;100.00
58473;BME280;44775;51.564;5.460;2023-03-13T06:54:04;99524.59;;;12.42;100.00
58473;BME280;44775;51.564;5.460;2023-03-13T06:56:29;99519.25;;;12.42;100.00
58473;BME280;44775;51.564;5.460;2023-03-13T06:58:55;99506.63;;;12.49;100.00
58473;BME280;44775;51.564;5.460;2023-03-13T07:01:20;99505.19;;;12.47;100.00
58473;BME280;44775;51.564;5.460;2023-03-13T07:03:49;99496.06;;;12.55;100.00
58473;BME280;44775;51.564;5.460;2023-03-13T07:06:14;99507.44;;;12.50;100.00
58473;BME280;44775;51.564;5.460;2023-03-13T07:08:40;99505.31;;;12.59;100.00
58473;BME280;44775;51.564;5.460;2023-03-13T07:11:07;99503.69;;;12.58;100.00
58473;BME280;44775;51.564;5.460;2023-03-13T07:13:33;99514.25;;;12.52;100.00
58473;BME280;44775;51.564;5.460;2023-03-13T07:16:00;99512.13;;;12.61;100.00
58473;BME280;44775;51.564;5.460;2023-03-13T07:18:25;99497.28;;;12.59;100.00
58473;BME280;44775;51.564;5.460;2023-03-13T07:20:55;99500.59;;;12.61;100.00
58473;BME280;44775;51.564;5.460;2023-03-13T07:23:22;99501.31;;;12.74;100.00
58473;BME280;44775;51.564;5.460;2023-03-13T07:25:56;99500.13;;;12.70;100.00
58473;BME280;44775;51.564;5.460;2023-03-13T07:28:22;99500.47;;;12.81;100.00
58473;BME280;44775;51.564;5.460;2023-03-13T07:30:48;99491.69;;;12.67;100.00
58473;BME280;44775;51.564;5.460;2023-03-13T07:33:14;99490.00;;;12.72;100.00
58473;BME280;44775;51.564;5.460;2023-03-13T07:35:39;99503.19;;;12.74;100.00
58473;BME280;44775;51.564;5.460;2023-03-13T07:38:04;99501.31;;;12.74;100.00
58473;BME280;44775;51.564;5.460;2023-03-13T07:40:30;99512.19;;;12.86;100.00
58473;BME280;44775;51.564;5.460;2023-03-13T07:42:55;99500.44;;;12.87;100.00
58473;BME280;44775;51.564;5.460;2023-03-13T07:45:20;99513.75;;;13.00;100.00
58473;BME280;44775;51.564;5.460;2023-03-13T07:47:46;99505.75;;;12.94;100.00
58473;BME280;44775;51.564;5.460;2023-03-13T07:50:11;99505.31;;;12.97;100.00
58473;BME280;44775;51.564;5.460;2023-03-13T07:52:36;99513.13;;;12.98;100.00
58473;BME280;44775;51.564;5.460;2023-03-13T07:55:02;99516.44;;;13.00;100.00
58473;BME280;44775;51.564;5.460;2023-03-13T07:57:27;99513.41;;;12.90;100.00
58473;BME280;44775;51.564;5.460;2023-03-13T07:59:52;99510.50;;;12.92;100.00
58473;BME280;44775;51.564;5.460;2023-03-13T08:02:17;99496.53;;;12.83;100.00
58473;BME280;44775;51.564;5.460;2023-03-13T08:04:43;99512.25;;;12.80;100.00
58473;BME280;44775;51.564;5.460;2023-03-13T08:07:09;99493.25;;;12.81;100.00
58473;BME280;44775;51.564;5.460;2023-03-13T08:09:34;99489.28;;;12.90;100.00
58473;BME280;44775;51.564;5.460;2023-03-13T08:12:00;99488.75;;;13.07;100.00
58473;BME280;44775;51.564;5.460;2023-03-13T08:14:25;99495.22;;;13.24;100.00
58473;BME280;44775;51.564;5.460;2023-03-13T08:16:50;99485.69;;;13.28;100.00
58473;BME280;44775;51.564;5.460;2023-03-13T08:19:16;99486.03;;;13.38;100.00
58473;BME280;44775;51.564;5.460;2023-03-13T08:21:41;99479.47;;;13.34;100.00
58473;BME280;44775;51.564;5.460;2023-03-13T08:24:08;99476.97;;;13.33;100.00
58473;BME280;44775;51.564;5.460;2023-03-13T08:26:36;99496.69;;;13.45;100.00
58473;BME280;44775;51.564;5.460;2023-03-13T08:29:04;99492.25;;;13.32;100.00
58473;BME280;44775;51.564;5.460;2023-03-13T08:31:36;99484.09;;;13.45;100.00
58473;BME280;44775;51.564;5.460;2023-03-13T08:34:02;99485.31;;;13.25;100.00
58473;BME280;44775;51.564;5.460;2023-03-13T08:36:31;99497.19;;;13.35;100.00
58473;BME280;44775;51.564;5.460;2023-03-13T08:39:01;99479.28;;;13.29;100.00
58473;BME280;44775;51.564;5.460;2023-03-13T08:41:28;99483.41;;;13.32;100.00
58473;BME280;44775;51.564;5.460;2023-03-13T08:43:55;99466.91;;;13.28;100.00
58473;BME280;44775;51.564;5.460;2023-03-13T08:46:21;99474.59;;;13.25;100.00
58473;BME280;44775;51.564;5.460;2023-03-13T08:48:51;99470.38;;;13.35;100.00
58473;BME280;44775;51.564;5.460;2023-03-13T08:51:18;99468.28;;;13.37;100.00
58473;BME280;44775;51.564;5.460;2023-03-13T08:53:44;99467.41;;;13.43;100.00
58473;BME280;44775;51.564;5.460;2023-03-13T08:56:13;99494.28;;;13.62;100.00
58473;BME280;44775;51.564;5.460;2023-03-13T08:58:39;99465.06;;;13.72;100.00
58473;BME280;44775;51.564;5.460;2023-03-13T09:01:09;99480.09;;;13.73;100.00
58473;BME280;44775;51.564;5.460;2023-03-13T09:03:35;99475.09;;;13.77;100.00
58473;BME280;44775;51.564;5.460;2023-03-13T09:06:01;99474.91;;;13.78;100.00
58473;BME280;44775;51.564;5.460;2023-03-13T09:08:29;99466.47;;;13.93;100.00
58473;BME280;44775;51.564;5.460;2023-03-13T09:10:59;99467.13;;;14.07;100.00
58473;BME280;44775;51.564;5.460;2023-03-13T09:13:25;99445.94;;;14.17;100.00
58473;BME280;44775;51.564;5.460;2023-03-13T09:16:00;99454.69;;;14.12;100.00
58473;BME280;44775;51.564;5.460;2023-03-13T09:18:26;99453.94;;;14.05;100.00
58473;BME280;44775;51.564;5.460;2023-03-13T09:20:52;99454.63;;;14.01;100.00
58473;BME280;44775;51.564;5.460;2023-03-13T09:23:19;99438.09;;;14.15;100.00
58473;BME280;44775;51.564;5.460;2023-03-13T09:25:45;99432.94;;;14.44;100.00
58473;BME280;44775;51.564;5.460;2023-03-13T09:28:10;99434.28;;;14.83;100.00
58473;BME280;44775;51.564;5.460;2023-03-13T09:30:36;99433.97;;;15.15;100.00
58473;BME280;44775;51.564;5.460;2023-03-13T09:33:01;99433.03;;;15.45;100.00
58473;BME280;44775;51.564;5.460;2023-03-13T09:35:26;99425.19;;;15.55;100.00
58473;BME280;44775;51.564;5.460;2023-03-13T09:37:52;99424.47;;;15.48;100.00
58473;BME280;44775;51.564;5.460;2023-03-13T09:40:20;99423.34;;;15.67;100.00
58473;BME280;44775;51.564;5.460;2023-03-13T09:42:56;99414.75;;;15.82;98.95
58473;BME280;44775;51.564;5.460;2023-03-13T09:45:36;99402.34;;;15.57;97.93
58473;BME280;44775;51.564;5.460;2023-03-13T09:50:57;99403.97;;;15.82;95.11
58473;BME280;44775;51.564;5.460;2023-03-13T09:53:40;99396.41;;;16.08;92.96
58473;BME280;44775;51.564;5.460;2023-03-13T09:56:13;99406.66;;;15.82;95.70
58473;BME280;44775;51.564;5.460;2023-03-13T09:58:51;99394.28;;;15.57;94.54
58473;BME280;44775;51.564;5.460;2023-03-13T10:01:20;99382.00;;;15.50;97.96
58473;BME280;44775;51.564;5.460;2023-03-13T10:04:31;99398.72;;;15.52;93.21
58473;BME280;44775;51.564;5.460;2023-03-13T10:06:59;99401.69;;;15.27;94.86
58473;BME280;44775;51.564;5.460;2023-03-13T10:09:31;99403.53;;;15.38;93.59
58473;BME280;44775;51.564;5.460;2023-03-13T10:14:52;99380.19;;;16.19;93.04
58473;BME280;44775;51.564;5.460;2023-03-13T10:17:32;99390.66;;;16.33;90.35
58473;BME280;44775;51.564;5.460;2023-03-13T10:22:46;99377.38;;;16.43;86.35
58473;BME280;44775;51.564;5.460;2023-03-13T10:25:32;99375.56;;;16.32;88.01
58473;BME280;44775;51.564;5.460;2023-03-13T10:27:58;99375.56;;;16.32;86.75
58473;BME280;44775;51.564;5.460;2023-03-13T10:30:29;99373.53;;;16.39;84.84
58473;BME280;44775;51.564;5.460;2023-03-13T10:33:24;99351.19;;;16.26;88.37
58473;BME280;44775;51.564;5.460;2023-03-13T10:36:05;99356.84;;;16.25;88.39
58473;BME280;44775;51.564;5.460;2023-03-13T10:38:34;99379.03;;;16.15;86.16
58473;BME280;44775;51.564;5.460;2023-03-13T10:41:20;99363.97;;;16.02;87.29
58473;BME280;44775;51.564;5.460;2023-03-13T10:43:51;99352.47;;;16.07;87.07
58473;BME280;44775;51.564;5.460;2023-03-13T10:46:27;99364.56;;;15.93;87.02
58473;BME280;44775;51.564;5.460;2023-03-13T10:48:54;99365.03;;;15.73;87.84
58473;BME280;44775;51.564;5.460;2023-03-13T10:51:22;99343.91;;;15.81;88.41
58473;BME280;44775;51.564;5.460;2023-03-13T10:53:48;99370.50;;;15.78;87.49
58473;BME280;44775;51.564;5.460;2023-03-13T10:56:15;99340.97;;;15.83;89.48
58473;BME280;44775;51.564;5.460;2023-03-13T10:58:48;99337.63;;;15.93;89.42
58473;BME280;44775;51.564;5.460;2023-03-13T11:03:46;99335.63;;;15.71;92.58
58473;BME280;44775;51.564;5.460;2023-03-13T11:06:25;99331.84;;;15.84;92.58
58473;BME280;44775;51.564;5.460;2023-03-13T11:09:17;99326.38;;;16.24;91.63
58473;BME280;44775;51.564;5.460;2023-03-13T11:11:52;99333.03;;;16.50;87.30
58473;BME280;44775;51.564;5.460;2023-03-13T11:14:20;99331.63;;;16.31;86.25
58473;BME280;44775;51.564;5.460;2023-03-13T11:27:27;99304.91;;;16.63;82.08
58473;BME280;44775;51.564;5.460;2023-03-13T11:32:54;99304.59;;;17.76;74.29
58473;BME280;44775;51.564;5.460;2023-03-13T11:38:12;99294.59;;;17.33;69.32
58473;BME280;44775;51.564;5.460;2023-03-13T11:49:02;99295.97;;;17.57;69.98
58473;BME280;44775;51.564;5.460;2023-03-13T11:54:24;99301.13;;;17.81;68.01
58473;BME280;44775;51.564;5.460;2023-03-13T11:57:12;99269.91;;;17.46;69.97
58473;BME280;44775;51.564;5.460;2023-03-13T11:59:44;99273.66;;;17.67;66.21
58473;BME280;44775;51.564;5.460;2023-03-13T12:02:38;99262.72;;;17.57;68.36
58473;BME280;44775;51.564;5.460;2023-03-13T12:05:08;99259.25;;;17.61;64.76
58473;BME280;44775;51.564;5.460;2023-03-13T12:07:40;99261.41;;;17.59;67.71
58473;BME280;44775;51.564;5.460;2023-03-13T12:10:11;99286.13;;;17.95;64.00
58473;BME280;44775;51.564;5.460;2023-03-13T12:12:43;99265.91;;;17.49;66.63
58473;BME280;44775;51.564;5.460;2023-03-13T12:15:23;99264.44;;;17.41;68.96
58473;BME280;44775;51.564;5.460;2023-03-13T12:17:51;99259.06;;;17.68;67.11
58473;BME280;44775;51.564;5.460;2023-03-13T12:25:53;99255.31;;;17.47;66.02
58473;BME280;44775;51.564;5.460;2023-03-13T12:28:40;99223.31;;;17.56;65.57
58473;BME280;44775;51.564;5.460;2023-03-13T12:33:53;99208.59;;;17.96;63.03
58473;BME280;44775;51.564;5.460;2023-03-13T12:36:27;99208.91;;;17.99;63.14
58473;BME280;44775;51.564;5.460;2023-03-13T12:41:30;99211.28;;;18.28;61.29
58473;BME280;44775;51.564;5.460;2023-03-13T12:43:57;99189.06;;;18.63;59.75
58473;BME280;44775;51.564;5.460;2023-03-13T12:46:40;99201.22;;;18.60;59.60
58473;BME280;44775;51.564;5.460;2023-03-13T12:55:26;99201.25;;;19.23;53.26
58473;BME280;44775;51.564;5.460;2023-03-13T13:00:40;99176.84;;;19.13;55.42
58473;BME280;44775;51.564;5.460;2023-03-13T13:06:01;99173.31;;;19.02;54.37
58473;BME280;44775;51.564;5.460;2023-03-13T13:08:32;99172.78;;;19.00;55.43
58473;BME280;44775;51.564;5.460;2023-03-13T13:14:05;99159.88;;;19.28;51.57
58473;BME280;44775;51.564;5.460;2023-03-13T13:16:58;99166.09;;;19.44;52.11
58473;BME280;44775;51.564;5.460;2023-03-13T13:24:56;99166.34;;;19.27;51.20
58473;BME280;44775;51.564;5.460;2023-03-13T13:29:58;99162.06;;;19.46;52.71
58473;BME280;44775;51.564;5.460;2023-03-13T13:32:39;99146.59;;;19.31;52.91
58473;BME280;44775;51.564;5.460;2023-03-13T13:35:19;99153.81;;;19.05;54.01
58473;BME280;44775;51.564;5.460;2023-03-13T13:37:45;99136.56;;;19.32;52.87
58473;BME280;44775;51.564;5.460;2023-03-13T13:40:29;99146.03;;;19.24;53.12
58473;BME280;44775;51.564;5.460;2023-03-13T13:42:57;99177.13;;;19.11;54.06
58473;BME280;44775;51.564;5.460;2023-03-13T13:45:28;99149.00;;;19.18;53.62
58473;BME280;44775;51.564;5.460;2023-03-13T14:01:29;99140.59;;;18.56;55.35
58473;BME280;44775;51.564;5.460;2023-03-13T14:04:12;99143.44;;;18.77;55.14
58473;BME280;44775;51.564;5.460;2023-03-13T14:06:42;99141.31;;;18.89;55.08
58473;BME280;44775;51.564;5.460;2023-03-13T14:17:54;99135.97;;;18.47;56.36
58473;BME280;44775;51.564;5.460;2023-03-13T14:20:25;99109.78;;;18.10;57.93
58473;BME280;44775;51.564;5.460;2023-03-13T14:22:53;99126.69;;;17.68;57.96
58473;BME280;44775;51.564;5.460;2023-03-13T14:25:21;99112.91;;;17.64;58.77
58473;BME280;44775;51.564;5.460;2023-03-13T14:27:47;99101.28;;;17.64;58.76
58473;BME280;44775;51.564;5.460;2023-03-13T14:30:17;99101.31;;;17.37;60.52
58473;BME280;44775;51.564;5.460;2023-03-13T14:32:43;99120.81;;;17.44;60.12
58473;BME280;44775;51.564;5.460;2023-03-13T14:35:10;99102.13;;;17.37;59.80
58473;BME280;44775;51.564;5.460;2023-03-13T14:37:45;99109.69;;;17.08;60.71
58473;BME280;44775;51.564;5.460;2023-03-13T14:42:47;99086.72;;;17.38;61.61